createdAt,value
2017-12-28T00:01:21.943Z,92.90
2017-12-28T00:02:58.673Z,92.50
2017-12-28T00:04:36.355Z,91.00
2017-12-28T00:06:12.969Z,91.00
2017-12-28T00:07:51.052Z,91.60
2017-12-28T00:09:35.555Z,91.50
2017-12-28T00:11:12.430Z,91.50
2017-12-28T00:12:49.035Z,90.80
2017-12-28T00:14:26.765Z,92.00
2017-12-28T00:16:03.186Z,92.00
2017-12-28T00:17:40.059Z,91.90
2017-12-28T00:19:16.522Z,91.30
2017-12-28T00:20:53.686Z,91.60
2017-12-28T00:22:30.184Z,91.60
2017-12-28T00:24:10.116Z,91.70
2017-12-28T00:25:47.431Z,90.90
2017-12-28T00:27:23.939Z,90.90
2017-12-28T00:29:00.378Z,90.60
2017-12-28T00:30:37.115Z,90.80
2017-12-28T00:32:13.515Z,90.90
2017-12-28T00:33:49.962Z,91.10
2017-12-28T00:35:26.493Z,90.60
2017-12-28T00:37:03.851Z,90.60
2017-12-28T00:38:40.271Z,90.40
2017-12-28T00:40:16.864Z,90.00
2017-12-28T00:41:56.009Z,90.00
2017-12-28T00:43:33.929Z,90.00
2017-12-28T00:45:14.238Z,89.60
2017-12-28T00:46:57.491Z,89.50
2017-12-28T00:48:34.051Z,89.30
2017-12-28T00:50:10.891Z,88.60
2017-12-28T00:51:47.369Z,89.30
2017-12-28T00:53:24.060Z,89.40
2017-12-28T00:55:00.370Z,89.40
2017-12-28T00:56:37.252Z,89.60
2017-12-28T00:58:13.608Z,90.10
2017-12-28T00:59:50.208Z,90.20
2017-12-28T01:01:26.855Z,90.20
2017-12-28T01:03:03.887Z,89.80
2017-12-28T01:04:40.484Z,88.90
2017-12-28T01:06:17.659Z,88.90
2017-12-28T01:07:54.156Z,88.80
2017-12-28T01:09:30.922Z,89.20
2017-12-28T01:11:08.039Z,90.00
2017-12-28T01:12:44.471Z,90.00
2017-12-28T01:14:21.771Z,90.30
2017-12-28T01:15:59.954Z,90.10
2017-12-28T01:17:36.530Z,90.00
2017-12-28T01:19:12.938Z,89.10
2017-12-28T01:20:49.320Z,88.30
2017-12-28T01:22:26.428Z,88.20
2017-12-28T01:24:02.933Z,88.50
2017-12-28T01:25:39.266Z,87.60
2017-12-28T01:27:15.748Z,88.60
2017-12-28T01:28:52.936Z,88.40
2017-12-28T01:30:30.222Z,89.20
2017-12-28T01:32:06.815Z,89.10
2017-12-28T01:33:43.212Z,89.70
2017-12-28T01:35:20.843Z,90.90
2017-12-28T01:36:59.940Z,90.60
2017-12-28T01:38:36.532Z,90.60
2017-12-28T01:40:13.113Z,90.50
2017-12-28T01:41:50.184Z,91.00
2017-12-28T01:43:26.572Z,91.60
2017-12-28T01:45:05.706Z,91.40
2017-12-28T01:46:42.155Z,91.10
2017-12-28T01:48:18.960Z,91.20
2017-12-28T01:49:55.506Z,91.40
2017-12-28T01:51:31.869Z,91.10
2017-12-28T01:53:13.321Z,91.10
2017-12-28T01:54:50.155Z,91.00
2017-12-28T01:56:27.902Z,91.60
2017-12-28T01:58:04.339Z,91.30
2017-12-28T01:59:40.801Z,91.70
2017-12-28T02:01:18.594Z,92.00
2017-12-28T02:02:55.164Z,92.50
2017-12-28T02:04:31.634Z,91.30
2017-12-28T02:06:08.052Z,90.90
2017-12-28T02:07:45.699Z,90.90
2017-12-28T02:09:22.356Z,91.00
2017-12-28T02:10:58.915Z,91.30
2017-12-28T02:12:38.151Z,90.80
2017-12-28T02:14:14.955Z,91.20
2017-12-28T02:16:21.899Z,90.90
2017-12-28T02:17:58.201Z,90.80
2017-12-28T02:19:36.033Z,90.40
2017-12-28T02:21:12.938Z,90.30
2017-12-28T02:22:50.696Z,90.70
2017-12-28T02:24:28.602Z,90.20
2017-12-28T02:26:06.164Z,90.40
2017-12-28T02:27:43.900Z,90.40
2017-12-28T02:29:21.290Z,90.70
2017-12-28T02:31:03.642Z,91.00
2017-12-28T02:32:41.899Z,90.90
2017-12-28T02:34:18.656Z,90.90
2017-12-28T02:35:55.724Z,90.40
2017-12-28T02:37:33.176Z,89.40
2017-12-28T02:39:11.167Z,90.10
2017-12-28T02:40:47.567Z,90.10
2017-12-28T02:42:24.199Z,89.90
2017-12-28T02:44:01.029Z,90.60
2017-12-28T02:45:38.089Z,90.80
2017-12-28T02:47:14.717Z,91.20
2017-12-28T02:48:52.618Z,90.80
2017-12-28T02:50:29.750Z,90.70
2017-12-28T02:52:06.087Z,90.50
2017-12-28T02:53:42.317Z,90.10
2017-12-28T02:55:19.218Z,89.90
2017-12-28T02:56:56.388Z,88.40
2017-12-28T02:58:33.490Z,88.20
2017-12-28T03:00:09.913Z,88.20
2017-12-28T03:01:46.614Z,88.90
2017-12-28T03:03:23.532Z,88.70
2017-12-28T03:04:59.832Z,89.40
2017-12-28T03:06:36.164Z,89.00
2017-12-28T03:08:12.478Z,88.60
2017-12-28T03:09:52.177Z,89.20
2017-12-28T03:11:29.094Z,89.10
2017-12-28T03:13:05.863Z,89.10
2017-12-28T03:14:44.141Z,88.20
2017-12-28T03:16:21.359Z,87.50
2017-12-28T03:17:57.678Z,87.50
2017-12-28T03:19:34.413Z,87.40
2017-12-28T03:21:11.905Z,88.00
2017-12-28T03:22:48.243Z,87.80
2017-12-28T03:24:24.619Z,87.70
2017-12-28T03:26:01.486Z,88.20
2017-12-28T03:27:41.123Z,88.30
2017-12-28T03:29:17.755Z,87.50
2017-12-28T03:31:00.881Z,87.70
2017-12-28T03:32:37.639Z,87.70
2017-12-28T03:34:13.997Z,88.00
2017-12-28T03:36:03.521Z,87.50
2017-12-28T03:37:50.423Z,87.00
2017-12-28T03:39:47.226Z,87.00
2017-12-28T03:41:24.157Z,87.10
2017-12-28T03:43:02.674Z,87.10
2017-12-28T03:44:44.088Z,88.00
2017-12-28T03:46:20.561Z,88.60
2017-12-28T03:47:56.942Z,88.20
2017-12-28T03:49:34.686Z,88.20
2017-12-28T03:51:11.693Z,88.20
2017-12-28T03:52:48.156Z,89.30
2017-12-28T03:54:24.884Z,90.30
2017-12-28T03:56:02.804Z,89.00
2017-12-28T03:57:39.203Z,89.00
2017-12-28T03:59:16.283Z,87.10
2017-12-28T04:00:53.450Z,87.00
2017-12-28T04:02:31.868Z,87.80
2017-12-28T04:04:09.030Z,89.50
2017-12-28T04:05:46.169Z,90.20
2017-12-28T04:07:23.927Z,90.10
2017-12-28T04:09:00.791Z,90.80
2017-12-28T04:10:37.107Z,91.10
2017-12-28T04:12:13.604Z,90.70
2017-12-28T04:13:49.910Z,90.60
2017-12-28T04:15:27.152Z,91.20
2017-12-28T04:17:04.367Z,90.70
2017-12-28T04:18:40.791Z,90.70
2017-12-28T04:20:18.019Z,90.10
2017-12-28T04:21:54.886Z,90.10
2017-12-28T04:23:32.247Z,90.20
2017-12-28T04:25:08.552Z,90.00
2017-12-28T04:26:45.543Z,90.50
2017-12-28T04:28:22.228Z,90.80
2017-12-28T04:29:59.739Z,91.10
2017-12-28T04:31:36.129Z,90.70
2017-12-28T04:33:13.268Z,89.60
2017-12-28T04:34:50.966Z,89.40
2017-12-28T04:36:27.271Z,89.30
2017-12-28T04:38:03.703Z,90.20
2017-12-28T04:39:40.243Z,90.30
2017-12-28T04:41:16.917Z,90.30
2017-12-28T04:42:54.755Z,90.20
2017-12-28T04:44:31.806Z,90.30
2017-12-28T04:46:08.271Z,90.30
2017-12-28T04:47:45.018Z,90.00
2017-12-28T04:49:21.412Z,90.10
2017-12-28T04:50:58.679Z,90.20
2017-12-28T04:52:35.854Z,89.30
2017-12-28T04:54:12.595Z,89.30
2017-12-28T04:55:49.097Z,89.10
2017-12-28T04:57:25.366Z,90.00
2017-12-28T04:59:02.583Z,90.30
2017-12-28T05:00:39.111Z,90.30
2017-12-28T05:02:15.414Z,88.80
2017-12-28T05:03:51.734Z,88.70
2017-12-28T05:05:28.069Z,89.60
2017-12-28T05:07:04.675Z,89.90
2017-12-28T05:08:43.925Z,90.50
2017-12-28T05:10:20.533Z,90.10
2017-12-28T05:11:57.907Z,90.50
2017-12-28T05:13:34.562Z,90.50
2017-12-28T05:15:13.534Z,90.30
2017-12-28T05:16:49.912Z,90.20
2017-12-28T05:18:27.084Z,89.80
2017-12-28T05:20:04.084Z,89.90
2017-12-28T05:21:40.601Z,89.60
2017-12-28T05:23:16.933Z,90.30
2017-12-28T05:24:53.479Z,90.70
2017-12-28T05:26:31.895Z,90.70
2017-12-28T05:28:08.212Z,90.50
2017-12-28T05:29:45.322Z,89.30
2017-12-28T05:31:23.094Z,90.00
2017-12-28T05:33:00.674Z,89.90
2017-12-28T05:34:37.232Z,89.90
2017-12-28T05:36:13.565Z,88.80
2017-12-28T05:37:49.868Z,88.90
2017-12-28T05:39:26.913Z,88.60
2017-12-28T05:41:03.376Z,88.70
2017-12-28T05:42:39.871Z,88.70
2017-12-28T05:44:16.306Z,89.40
2017-12-28T05:45:53.127Z,89.40
2017-12-28T05:47:30.206Z,90.00
2017-12-28T05:49:07.404Z,90.10
2017-12-28T05:50:43.768Z,90.00
2017-12-28T05:52:21.187Z,90.30
2017-12-28T05:53:57.532Z,90.30
2017-12-28T05:55:34.095Z,90.60
2017-12-28T05:57:10.423Z,90.70
2017-12-28T05:58:47.052Z,91.00
2017-12-28T06:00:23.394Z,90.70
2017-12-28T06:02:00.046Z,90.20
2017-12-28T06:03:36.369Z,90.30
2017-12-28T06:05:13.790Z,90.00
2017-12-28T06:06:50.041Z,90.00
2017-12-28T06:08:29.534Z,90.90
2017-12-28T06:10:06.058Z,90.90
2017-12-28T06:11:43.711Z,91.00
2017-12-28T06:13:20.119Z,91.00
2017-12-28T06:14:56.454Z,91.10
2017-12-28T06:16:37.234Z,90.80
2017-12-28T06:18:14.029Z,90.50
2017-12-28T06:19:50.448Z,90.90
2017-12-28T06:21:27.576Z,91.00
2017-12-28T06:23:03.954Z,90.70
2017-12-28T06:24:40.610Z,90.40
2017-12-28T06:26:16.995Z,90.40
2017-12-28T06:27:53.364Z,90.30
2017-12-28T06:29:29.664Z,90.20
2017-12-28T06:31:06.209Z,89.80
2017-12-28T06:32:44.081Z,89.10
2017-12-28T06:34:20.536Z,89.00
2017-12-28T06:35:57.531Z,88.50
2017-12-28T06:37:35.013Z,88.00
2017-12-28T06:39:12.197Z,87.70
2017-12-28T06:40:49.266Z,88.00
2017-12-28T06:42:27.848Z,87.90
2017-12-28T06:44:04.498Z,87.70
2017-12-28T06:45:40.897Z,86.80
2017-12-28T06:47:17.919Z,87.20
2017-12-28T06:48:54.259Z,87.80
2017-12-28T06:50:31.023Z,88.60
2017-12-28T06:52:07.407Z,87.90
2017-12-28T06:53:43.765Z,88.30
2017-12-28T06:55:20.214Z,89.20
2017-12-28T06:56:57.970Z,90.10
2017-12-28T06:58:34.411Z,90.20
2017-12-28T07:00:10.745Z,90.00
2017-12-28T07:01:52.262Z,89.80
2017-12-28T07:03:29.133Z,89.30
2017-12-28T07:05:08.952Z,89.30
2017-12-28T07:06:46.017Z,89.50
2017-12-28T07:08:27.479Z,89.50
2017-12-28T07:10:03.761Z,90.30
2017-12-28T07:11:40.168Z,90.60
2017-12-28T07:13:16.531Z,90.30
2017-12-28T07:14:53.151Z,90.00
2017-12-28T07:16:30.141Z,89.60
2017-12-28T07:18:07.187Z,90.10
2017-12-28T07:19:43.498Z,90.00
2017-12-28T07:21:20.311Z,90.20
2017-12-28T07:22:56.608Z,90.40
2017-12-28T07:24:33.661Z,90.80
2017-12-28T07:26:10.083Z,91.50
2017-12-28T07:27:47.256Z,91.40
2017-12-28T07:29:23.730Z,91.10
2017-12-28T07:31:00.244Z,91.50
2017-12-28T07:32:36.693Z,91.70
2017-12-28T07:34:13.437Z,91.60
2017-12-28T07:35:49.876Z,91.70
2017-12-28T07:37:26.158Z,91.70
2017-12-28T07:39:02.514Z,92.30
2017-12-28T07:40:39.210Z,92.10
2017-12-28T07:42:16.429Z,91.80
2017-12-28T07:43:52.705Z,91.80
2017-12-28T07:45:29.958Z,92.30
2017-12-28T07:47:06.306Z,92.30
2017-12-28T07:48:42.691Z,92.40
2017-12-28T07:50:19.070Z,92.40
2017-12-28T07:51:55.552Z,92.40
2017-12-28T07:53:32.394Z,92.60
2017-12-28T07:55:08.740Z,92.20
2017-12-28T07:56:45.737Z,91.70
2017-12-28T07:58:22.135Z,91.90
2017-12-28T07:59:58.986Z,92.30
2017-12-28T08:01:35.393Z,92.20
2017-12-28T08:03:11.900Z,92.00
2017-12-28T08:04:49.360Z,91.40
2017-12-28T08:06:26.290Z,90.80
2017-12-28T08:08:02.740Z,90.80
2017-12-28T08:09:39.127Z,91.00
2017-12-28T08:11:15.553Z,90.70
2017-12-28T08:12:52.195Z,91.10
2017-12-28T08:14:28.541Z,90.90
2017-12-28T08:16:09.517Z,90.90
2017-12-28T08:17:46.448Z,90.90
2017-12-28T08:19:23.102Z,91.30
2017-12-28T08:20:59.416Z,91.40
2017-12-28T08:22:35.742Z,91.40
2017-12-28T08:24:12.203Z,91.20
2017-12-28T08:25:48.864Z,90.90
2017-12-28T08:27:25.941Z,90.50
2017-12-28T08:29:02.302Z,90.80
2017-12-28T08:30:38.606Z,90.50
2017-12-28T08:32:15.521Z,90.40
2017-12-28T08:33:51.903Z,90.40
2017-12-28T08:35:29.054Z,90.90
2017-12-28T08:37:06.230Z,90.40
2017-12-28T08:38:44.936Z,90.60
2017-12-28T08:40:21.385Z,90.60
2017-12-28T08:41:57.832Z,91.30
2017-12-28T08:43:34.319Z,91.70
2017-12-28T08:45:12.620Z,91.50
2017-12-28T08:46:49.026Z,91.20
2017-12-28T08:48:26.256Z,91.10
2017-12-28T08:50:02.702Z,91.10
2017-12-28T08:51:39.427Z,91.30
2017-12-28T08:53:15.802Z,91.90
2017-12-28T08:54:53.081Z,91.30
2017-12-28T08:56:29.457Z,91.20
2017-12-28T08:58:06.243Z,91.90
2017-12-28T08:59:43.447Z,91.60
2017-12-28T09:01:19.860Z,91.60
2017-12-28T09:02:57.101Z,90.90
2017-12-28T09:04:34.011Z,90.90
2017-12-28T09:06:10.344Z,90.80
2017-12-28T09:07:46.831Z,91.00
2017-12-28T09:09:24.115Z,90.80
2017-12-28T09:11:01.446Z,91.00
2017-12-28T09:12:37.866Z,91.20
2017-12-28T09:14:25.998Z,91.60
2017-12-28T09:16:02.461Z,91.50
2017-12-28T09:17:39.238Z,91.90
2017-12-28T09:19:15.563Z,91.90
2017-12-28T09:20:52.041Z,91.70
2017-12-28T09:22:28.392Z,91.00
2017-12-28T09:24:05.398Z,91.30
2017-12-28T09:25:42.744Z,90.40
2017-12-28T09:27:19.158Z,90.40
2017-12-28T09:28:56.374Z,90.20
2017-12-28T09:30:33.066Z,90.20
2017-12-28T09:32:16.173Z,90.10
2017-12-28T09:33:52.878Z,89.60
2017-12-28T09:35:30.648Z,89.80
2017-12-28T09:37:07.302Z,89.80
2017-12-28T09:38:44.787Z,90.10
2017-12-28T09:40:21.128Z,89.20
2017-12-28T09:41:57.509Z,90.10
2017-12-28T09:43:34.238Z,90.30
2017-12-28T09:45:14.254Z,91.20
2017-12-28T09:46:52.287Z,90.70
2017-12-28T09:48:28.750Z,89.30
2017-12-28T09:50:05.582Z,90.30
2017-12-28T09:51:43.367Z,90.10
2017-12-28T09:53:22.809Z,90.00
2017-12-28T09:54:59.922Z,89.60
2017-12-28T09:56:36.677Z,89.40
2017-12-28T09:58:13.123Z,90.40
2017-12-28T09:59:50.199Z,88.60
2017-12-28T10:01:27.300Z,89.30
2017-12-28T10:03:04.191Z,89.30
2017-12-28T10:04:40.774Z,90.20
2017-12-28T10:06:17.189Z,90.30
2017-12-28T10:07:53.606Z,89.10
2017-12-28T10:09:31.997Z,90.00
2017-12-28T10:11:08.433Z,89.80
2017-12-28T10:12:44.784Z,88.40
2017-12-28T10:14:21.243Z,87.90
2017-12-28T10:16:01.823Z,88.50
2017-12-28T10:17:38.262Z,88.50
2017-12-28T10:19:14.639Z,88.60
2017-12-28T10:20:51.147Z,89.10
2017-12-28T10:22:28.712Z,87.70
2017-12-28T10:24:05.139Z,87.70
2017-12-28T10:25:42.158Z,87.50
2017-12-28T10:27:18.805Z,87.00
2017-12-28T10:28:55.212Z,86.40
2017-12-28T10:30:31.722Z,86.00
2017-12-28T10:32:08.305Z,85.90
2017-12-28T10:33:44.799Z,87.10
2017-12-28T10:35:22.417Z,86.00
2017-12-28T10:36:59.705Z,84.10
2017-12-28T10:38:36.126Z,84.10
2017-12-28T10:40:20.935Z,84.30
2017-12-28T10:41:57.775Z,85.20
2017-12-28T10:43:35.024Z,84.10
2017-12-28T10:45:13.670Z,84.00
2017-12-28T10:46:50.202Z,84.80
2017-12-28T10:48:27.665Z,83.40
2017-12-28T10:51:45.326Z,85.00
2017-12-28T10:53:21.752Z,85.50
2017-12-28T10:54:58.763Z,84.20
2017-12-28T10:56:35.426Z,84.70
2017-12-28T10:58:12.658Z,84.30
2017-12-28T10:59:50.053Z,84.30
2017-12-28T11:01:28.235Z,83.30
2017-12-28T11:03:05.378Z,82.50
2017-12-28T11:04:43.351Z,82.50
2017-12-28T11:06:19.756Z,82.00
2017-12-28T11:07:57.404Z,81.70
2017-12-28T11:09:36.870Z,81.60
2017-12-28T11:11:14.363Z,81.20
2017-12-28T11:12:50.709Z,80.90
2017-12-28T11:14:27.992Z,82.30
2017-12-28T11:16:14.871Z,83.90
2017-12-28T11:17:51.255Z,83.30
2017-12-28T11:19:28.537Z,82.70
2017-12-28T11:21:05.916Z,82.50
2017-12-28T11:22:43.115Z,81.10
2017-12-28T11:24:19.666Z,81.50
2017-12-28T11:25:56.929Z,77.70
2017-12-28T11:27:33.908Z,77.10
2017-12-28T11:29:11.049Z,76.10
2017-12-28T11:30:48.262Z,76.10
2017-12-28T11:32:34.868Z,75.60
2017-12-28T11:34:11.522Z,75.40
2017-12-28T11:35:47.998Z,75.20
2017-12-28T11:37:25.497Z,76.60
2017-12-28T11:39:01.960Z,76.60
2017-12-28T11:40:38.825Z,76.50
2017-12-28T11:42:15.288Z,77.50
2017-12-28T11:43:52.403Z,78.70
2017-12-28T11:45:31.782Z,78.70
2017-12-28T11:47:09.579Z,77.80
2017-12-28T11:48:46.563Z,77.80
2017-12-28T11:50:27.059Z,78.70
2017-12-28T11:52:07.146Z,76.80
2017-12-28T11:53:47.687Z,76.90
2017-12-28T11:55:28.289Z,77.00
2017-12-28T11:57:09.526Z,76.30
2017-12-28T11:58:50.398Z,76.30
2017-12-28T12:00:33.222Z,77.00
2017-12-28T12:02:09.968Z,77.00
2017-12-28T12:03:50.239Z,76.40
2017-12-28T12:05:27.383Z,76.40
2017-12-28T12:07:04.429Z,77.20
2017-12-28T12:08:45.822Z,77.00
2017-12-28T12:10:23.658Z,76.70
2017-12-28T12:12:01.615Z,78.20
2017-12-28T12:13:39.029Z,77.60
2017-12-28T12:15:17.689Z,77.60
2017-12-28T12:16:54.324Z,76.40
2017-12-28T12:18:31.305Z,76.30
2017-12-28T12:20:08.083Z,76.60
2017-12-28T12:21:45.622Z,76.80
2017-12-28T12:23:22.074Z,75.90
2017-12-28T12:24:59.145Z,74.50
2017-12-28T12:26:36.451Z,77.20
2017-12-28T12:28:13.858Z,77.30
2017-12-28T12:29:50.677Z,77.20
2017-12-28T12:31:27.263Z,77.00
2017-12-28T12:33:03.838Z,75.50
2017-12-28T12:34:40.229Z,73.20
2017-12-28T12:36:16.838Z,73.10
2017-12-28T12:37:53.912Z,72.80
2017-12-28T12:39:30.465Z,71.90
2017-12-28T12:41:07.985Z,71.60
2017-12-28T12:42:45.612Z,71.10
2017-12-28T12:44:23.123Z,70.70
2017-12-28T12:45:59.769Z,70.80
2017-12-28T12:47:36.499Z,71.60
2017-12-28T12:49:13.901Z,72.70
2017-12-28T12:50:51.659Z,72.40
2017-12-28T12:52:28.553Z,72.40
2017-12-28T12:54:06.339Z,73.10
2017-12-28T12:55:42.868Z,73.10
2017-12-28T12:57:21.457Z,74.80
2017-12-28T12:58:58.890Z,75.40
2017-12-28T13:00:35.510Z,75.30
2017-12-28T13:02:12.132Z,73.00
2017-12-28T13:03:48.648Z,74.00
2017-12-28T13:05:25.201Z,73.60
2017-12-28T13:07:03.671Z,72.80
2017-12-28T13:08:41.145Z,71.80
2017-12-28T13:10:17.828Z,71.80
2017-12-28T13:11:54.312Z,71.70
2017-12-28T13:13:32.383Z,71.50
2017-12-28T13:16:40.383Z,70.10
2017-12-28T13:18:17.650Z,72.20
2017-12-28T13:19:54.112Z,72.20
2017-12-28T13:21:30.539Z,71.90
2017-12-28T13:23:07.292Z,73.90
2017-12-28T13:24:44.534Z,72.90
2017-12-28T13:26:20.820Z,72.80
2017-12-28T13:27:57.402Z,71.90
2017-12-28T13:29:34.202Z,72.70
2017-12-28T13:31:10.691Z,72.00
2017-12-28T13:32:47.568Z,72.20
2017-12-28T13:34:23.895Z,72.20
2017-12-28T13:36:00.543Z,72.10
2017-12-28T13:37:37.928Z,71.00
2017-12-28T13:39:14.363Z,71.00
2017-12-28T13:40:50.926Z,71.20
2017-12-28T13:42:28.500Z,70.90
2017-12-28T13:44:05.163Z,70.90
2017-12-28T13:45:41.640Z,71.40
2017-12-28T13:47:18.253Z,69.50
2017-12-28T13:48:55.072Z,69.50
2017-12-28T13:50:31.466Z,70.20
2017-12-28T13:52:08.684Z,70.10
2017-12-28T13:53:48.496Z,69.90
2017-12-28T13:55:25.015Z,69.80
2017-12-28T13:57:02.263Z,69.90
2017-12-28T13:58:38.768Z,69.60
2017-12-28T14:00:21.213Z,68.80
2017-12-28T14:01:58.036Z,68.80
2017-12-28T14:05:08.504Z,69.90
2017-12-28T14:06:45.383Z,69.70
2017-12-28T14:08:22.193Z,69.60
2017-12-28T14:09:59.490Z,69.30
2017-12-28T14:11:38.673Z,69.70
2017-12-28T14:13:14.979Z,69.60
2017-12-28T14:14:51.792Z,68.40
2017-12-28T14:16:28.250Z,69.90
2017-12-28T14:18:04.613Z,70.60
2017-12-28T14:19:41.080Z,69.80
2017-12-28T14:21:23.583Z,70.10
2017-12-28T14:22:59.953Z,69.80
2017-12-28T14:24:36.427Z,70.30
2017-12-28T14:26:12.892Z,70.40
2017-12-28T14:27:49.885Z,70.70
2017-12-28T14:29:26.387Z,73.00
2017-12-28T14:31:02.787Z,75.50
2017-12-28T14:32:39.306Z,75.00
2017-12-28T14:34:16.038Z,75.70
2017-12-28T14:35:55.202Z,72.50
2017-12-28T14:37:31.607Z,72.50
2017-12-28T14:39:09.939Z,71.40
2017-12-28T14:40:46.967Z,69.80
2017-12-28T14:42:25.981Z,71.20
2017-12-28T14:44:02.354Z,71.20
2017-12-28T14:45:39.685Z,71.00
2017-12-28T14:47:17.397Z,72.80
2017-12-28T14:48:53.914Z,72.70
2017-12-28T14:50:30.324Z,72.20
2017-12-28T14:52:07.612Z,71.20
2017-12-28T14:53:44.624Z,71.10
2017-12-28T14:55:21.019Z,71.80
2017-12-28T14:56:58.313Z,70.00
2017-12-28T14:58:34.732Z,70.00
2017-12-28T15:00:11.775Z,71.00
2017-12-28T15:01:49.038Z,71.60
2017-12-28T15:03:26.579Z,71.70
2017-12-28T15:05:03.946Z,72.80
2017-12-28T15:06:40.796Z,73.50
2017-12-28T15:08:22.017Z,72.20
2017-12-28T15:09:58.417Z,72.20
2017-12-28T15:11:35.587Z,75.20
2017-12-28T15:13:20.336Z,75.20
2017-12-28T15:14:57.248Z,75.20
2017-12-28T15:16:34.235Z,77.00
2017-12-28T15:18:10.852Z,76.40
2017-12-28T15:19:47.617Z,75.20
2017-12-28T15:21:24.224Z,75.70
2017-12-28T15:23:00.652Z,73.50
2017-12-28T15:24:37.085Z,72.60
2017-12-28T15:26:13.894Z,72.00
2017-12-28T15:27:50.276Z,72.10
2017-12-28T15:29:26.747Z,72.00
2017-12-28T15:31:04.129Z,71.70
2017-12-28T15:32:40.962Z,72.60
2017-12-28T15:34:17.411Z,72.10
2017-12-28T15:35:53.831Z,71.20
2017-12-28T15:37:31.281Z,71.30
2017-12-28T15:39:08.775Z,74.00
2017-12-28T15:40:45.249Z,74.00
2017-12-28T15:42:22.440Z,73.80
2017-12-28T15:43:58.880Z,73.70
2017-12-28T15:45:37.402Z,73.00
2017-12-28T15:47:13.964Z,74.00
2017-12-28T15:48:51.182Z,76.80
2017-12-28T15:50:50.824Z,76.70
2017-12-28T15:52:28.355Z,77.40
2017-12-28T15:54:04.754Z,76.70
2017-12-28T15:55:44.914Z,75.40
2017-12-28T15:57:21.927Z,73.50
2017-12-28T15:58:58.708Z,74.20
2017-12-28T16:00:35.300Z,73.70
2017-12-28T16:02:11.817Z,72.60
2017-12-28T16:03:49.120Z,72.50
2017-12-28T16:05:26.651Z,72.50
2017-12-28T16:07:03.058Z,72.70
2017-12-28T16:08:40.613Z,73.90
2017-12-28T16:10:17.160Z,73.90
2017-12-28T16:11:54.016Z,73.00
2017-12-28T16:13:31.142Z,73.60
2017-12-28T16:15:09.022Z,73.70
2017-12-28T16:16:45.846Z,73.80
2017-12-28T16:18:23.388Z,75.70
2017-12-28T16:19:59.883Z,75.70
2017-12-28T16:21:36.393Z,74.40
2017-12-28T16:23:12.799Z,75.30
2017-12-28T16:24:49.386Z,76.10
2017-12-28T16:26:26.812Z,76.60
2017-12-28T16:28:03.414Z,76.40
2017-12-28T16:29:40.233Z,74.80
2017-12-28T16:31:17.244Z,76.30
2017-12-28T16:32:54.643Z,74.40
2017-12-28T16:34:31.167Z,74.40
2017-12-28T16:36:07.729Z,74.00
2017-12-28T16:37:45.689Z,74.40
2017-12-28T16:39:22.586Z,76.10
2017-12-28T16:40:59.048Z,77.60
2017-12-28T16:42:35.574Z,77.90
2017-12-28T16:44:12.319Z,78.20
2017-12-28T16:45:48.815Z,78.40
2017-12-28T16:47:25.356Z,76.70
2017-12-28T16:49:01.858Z,75.30
2017-12-28T16:50:38.684Z,74.90
2017-12-28T16:52:15.185Z,74.70
2017-12-28T16:53:52.172Z,75.10
2017-12-28T16:55:28.533Z,75.10
2017-12-28T16:57:05.218Z,74.70
2017-12-28T16:58:42.362Z,75.40
2017-12-28T17:00:18.904Z,75.40
2017-12-28T17:01:57.777Z,74.70
2017-12-28T17:03:35.069Z,76.00
2017-12-28T17:05:13.303Z,74.50
2017-12-28T17:06:50.511Z,74.00
2017-12-28T17:08:29.073Z,73.90
2017-12-28T17:10:06.588Z,75.50
2017-12-28T17:11:43.296Z,75.40
2017-12-28T17:13:19.809Z,75.90
2017-12-28T17:14:56.203Z,78.10
2017-12-28T17:16:33.636Z,78.40
2017-12-28T17:18:10.826Z,78.00
2017-12-28T17:19:47.346Z,78.00
2017-12-28T17:21:23.940Z,78.20
2017-12-28T17:23:01.578Z,76.80
2017-12-28T17:24:38.024Z,76.80
2017-12-28T17:26:14.579Z,77.50
2017-12-28T17:27:51.141Z,77.30
2017-12-28T17:29:28.056Z,75.80
2017-12-28T17:31:04.754Z,74.20
2017-12-28T17:32:41.277Z,73.40
2017-12-28T17:34:17.778Z,75.90
2017-12-28T17:35:55.774Z,76.90
2017-12-28T17:37:33.132Z,75.00
2017-12-28T17:39:09.661Z,74.90
2017-12-28T17:40:49.029Z,73.90
2017-12-28T17:42:25.874Z,75.20
2017-12-28T17:44:02.518Z,76.20
2017-12-28T17:45:39.118Z,74.50
2017-12-28T17:47:23.886Z,75.90
2017-12-28T17:49:01.442Z,76.20
2017-12-28T17:50:39.029Z,76.80
2017-12-28T17:52:15.536Z,78.00
2017-12-28T17:53:52.157Z,78.10
2017-12-28T17:55:29.036Z,78.40
2017-12-28T17:57:08.574Z,79.80
2017-12-28T17:58:44.964Z,79.00
2017-12-28T18:00:21.574Z,79.10
2017-12-28T18:02:02.342Z,80.40
2017-12-28T18:03:41.447Z,80.40
2017-12-28T18:05:18.162Z,79.20
2017-12-28T18:06:54.870Z,78.90
2017-12-28T18:08:32.967Z,81.10
2017-12-28T18:10:11.281Z,81.00
2017-12-28T18:11:48.770Z,80.60
2017-12-28T18:13:25.499Z,78.70
2017-12-28T18:15:03.854Z,80.20
2017-12-28T18:16:42.464Z,80.50
2017-12-28T18:18:19.686Z,79.70
2017-12-28T18:19:59.227Z,78.70
2017-12-28T18:21:36.929Z,78.70
2017-12-28T18:23:13.449Z,81.00
2017-12-28T18:24:51.585Z,81.40
2017-12-28T18:26:28.842Z,81.60
2017-12-28T18:28:05.664Z,80.70
2017-12-28T18:29:42.937Z,81.50
2017-12-28T18:31:19.441Z,81.40
2017-12-28T18:32:55.976Z,81.90
2017-12-28T18:34:33.421Z,79.60
2017-12-28T18:36:09.839Z,79.60
2017-12-28T18:37:46.331Z,78.80
2017-12-28T18:39:22.911Z,81.10
2017-12-28T18:40:59.431Z,81.90
2017-12-28T18:42:36.082Z,81.40
2017-12-28T18:44:23.767Z,82.30
2017-12-28T18:46:00.271Z,82.90
2017-12-28T18:47:38.082Z,82.10
2017-12-28T18:49:16.038Z,81.30
2017-12-28T18:50:53.243Z,81.30
2017-12-28T18:52:31.004Z,80.90
2017-12-28T18:55:46.681Z,78.80
2017-12-28T18:57:26.163Z,78.80
2017-12-28T18:59:02.886Z,78.30
2017-12-28T19:00:41.036Z,76.80
2017-12-28T19:02:19.120Z,75.60
2017-12-28T19:03:55.649Z,74.10
2017-12-28T19:05:32.878Z,74.80
2017-12-28T19:07:10.314Z,76.30
2017-12-28T19:08:48.705Z,76.60
2017-12-28T19:10:25.502Z,75.80
2017-12-28T19:12:02.994Z,74.60
2017-12-28T19:13:41.812Z,74.60
2017-12-28T19:15:19.365Z,77.30
2017-12-28T19:16:58.074Z,80.10
2017-12-28T19:18:36.907Z,82.20
2017-12-28T19:20:15.939Z,80.80
2017-12-28T19:22:01.726Z,78.10
2017-12-28T19:23:40.282Z,78.10
2017-12-28T19:25:18.142Z,78.20
2017-12-28T19:26:58.169Z,79.60
2017-12-28T19:28:38.225Z,79.80
2017-12-28T19:30:19.529Z,78.10
2017-12-28T19:31:58.693Z,76.10
2017-12-28T19:33:35.305Z,75.60
2017-12-28T19:35:11.859Z,74.40
2017-12-28T19:36:49.800Z,74.90
2017-12-28T19:38:28.755Z,76.80
2017-12-28T19:40:07.035Z,78.30
2017-12-28T19:41:44.165Z,78.30
2017-12-28T19:43:21.868Z,79.40
2017-12-28T19:44:59.033Z,79.40
2017-12-28T19:46:36.325Z,77.40
2017-12-28T19:48:18.172Z,76.50
2017-12-28T19:49:56.044Z,75.50
2017-12-28T19:51:34.496Z,75.60
2017-12-28T19:53:12.629Z,76.60
2017-12-28T19:54:51.056Z,77.30
2017-12-28T19:56:33.101Z,77.70
2017-12-28T19:58:13.037Z,75.80
2017-12-28T19:59:51.622Z,75.80
2017-12-28T20:01:30.412Z,76.50
2017-12-28T20:03:07.852Z,76.40
2017-12-28T20:04:46.272Z,78.50
2017-12-28T20:06:24.271Z,78.20
2017-12-28T20:08:04.664Z,78.20
2017-12-28T20:09:44.108Z,79.90
2017-12-28T20:11:23.617Z,80.50
2017-12-28T20:13:01.679Z,81.00
2017-12-28T20:14:39.427Z,82.10
2017-12-28T20:16:28.132Z,82.50
2017-12-28T20:18:05.817Z,82.30
2017-12-28T20:19:45.527Z,80.60
2017-12-28T20:21:24.274Z,78.50
2017-12-28T20:23:02.989Z,78.50
2017-12-28T20:24:41.441Z,79.10
2017-12-28T20:26:20.652Z,79.10
2017-12-28T20:28:04.866Z,77.30
2017-12-28T20:29:45.006Z,76.00
2017-12-28T20:31:25.895Z,75.60
2017-12-28T20:33:08.034Z,75.60
2017-12-28T20:34:49.735Z,77.90
2017-12-28T20:36:30.893Z,77.80
2017-12-28T20:38:11.112Z,77.80
2017-12-28T20:39:49.398Z,77.60
2017-12-28T20:41:31.185Z,76.70
2017-12-28T20:43:10.497Z,76.70
2017-12-28T20:44:56.136Z,75.20
2017-12-28T20:46:41.779Z,75.20
2017-12-28T20:48:28.447Z,75.20
2017-12-28T20:50:07.029Z,75.90
2017-12-28T20:51:47.289Z,78.20
2017-12-28T20:53:26.846Z,78.20
2017-12-28T20:55:05.124Z,77.10
2017-12-28T20:56:45.078Z,77.80
2017-12-28T20:58:25.397Z,76.40
2017-12-28T21:00:11.489Z,78.60
2017-12-28T21:01:52.775Z,78.00
2017-12-28T21:21:01.990Z,78.10